Airfield :
LOGIN :

Register | Disclaimer

   EN    FR    IT 

 










Legend :    VFR   Marginal VFR   IFR   Intensive IFR   Very Intensive IFR
Visi :
Ceiling :
>= 8 km
>= 3000ft
5 to 8 km
1000 to 3000 ft
1500m to 5 km
500 to 1000 ft
800 to 1500m
200 to 500 ft
< 800m
< 200 ft
Symbols :   Thunderstorms  Fog  Heavy snow  Heavy precipitations  Wind > 20 kt
SIGMETs :     Misc.  Thunderstorms  Icing  Turbulence  Mountain Waves  Volcanic Ashes







- Airport Elevation : 230 ft
- IATA code : TBJ


DTKA - Tabarka 7 Novembre

CURRENT METAR :
  • 211900Z 00000KT 9999 SCT020 19/17 Q1016 NOSIG

EXPIRED METARs :
  • 211800Z 20003KT 9999 SCT020 20/18 Q1017 NOSIG
  • 211700Z 24003KT 9999 SCT020 21/18 Q1016 NOSIG

TAF TAF DTKA
Valid from the 21 at 16:00 until the 22 at 01:00 UTC


211510Z 2116/2201 VRB04KT 9999 FEW020
No reported NOTAMs for that airfield.



MET'MAP, your aeronautical weather chart ! - Copyright ORBIFLY December 2007 - Disclaimer

ORBIFLY MET'MAP TEAM :

Programming & Development : Alexandra Zaïnal
Concept & Development : Baudouin d'Aumeries
Co-Development & Prog : Marc-Olivier Méhu
Technical & hardware support : Manuel Goepfert

Contact : metmap@orbifly.com




SOURCES & CREDITS :

   NOAA